sensor_id;sensor_type;location;lat;lon;timestamp;P1;durP1;ratioP1;P2;durP2;ratioP2
3185;SDS011;1604;53.700;10.252;2023-12-07T00:00:40;208.77;;;62.27;;
3185;SDS011;1604;53.700;10.252;2023-12-07T00:03:42;187.90;;;57.97;;
3185;SDS011;1604;53.700;10.252;2023-12-07T00:06:44;209.60;;;57.37;;
3185;SDS011;1604;53.700;10.252;2023-12-07T00:09:46;188.57;;;52.50;;
3185;SDS011;1604;53.700;10.252;2023-12-07T00:12:48;171.47;;;50.67;;
3185;SDS011;1604;53.700;10.252;2023-12-07T00:15:51;178.80;;;53.63;;
3185;SDS011;1604;53.700;10.252;2023-12-07T00:18:53;197.53;;;52.07;;
3185;SDS011;1604;53.700;10.252;2023-12-07T00:21:56;184.37;;;49.53;;
3185;SDS011;1604;53.700;10.252;2023-12-07T00:24:58;187.13;;;51.43;;
3185;SDS011;1604;53.700;10.252;2023-12-07T00:28:00;156.37;;;48.77;;
3185;SDS011;1604;53.700;10.252;2023-12-07T00:31:05;177.63;;;46.33;;
3185;SDS011;1604;53.700;10.252;2023-12-07T00:34:08;163.90;;;48.90;;
3185;SDS011;1604;53.700;10.252;2023-12-07T00:37:10;144.30;;;45.90;;
3185;SDS011;1604;53.700;10.252;2023-12-07T00:40:12;154.63;;;46.90;;
3185;SDS011;1604;53.700;10.252;2023-12-07T00:43:14;202.77;;;49.43;;
3185;SDS011;1604;53.700;10.252;2023-12-07T00:46:18;187.00;;;48.40;;
3185;SDS011;1604;53.700;10.252;2023-12-07T00:49:20;244.33;;;49.53;;
3185;SDS011;1604;53.700;10.252;2023-12-07T00:52:22;285.33;;;54.63;;
3185;SDS011;1604;53.700;10.252;2023-12-07T00:55:24;244.57;;;46.10;;
3185;SDS011;1604;53.700;10.252;2023-12-07T00:58:26;344.33;;;54.07;;
3185;SDS011;1604;53.700;10.252;2023-12-07T01:01:29;258.27;;;48.27;;
3185;SDS011;1604;53.700;10.252;2023-12-07T01:04:32;340.80;;;53.40;;
3185;SDS011;1604;53.700;10.252;2023-12-07T01:07:34;272.50;;;46.17;;
3185;SDS011;1604;53.700;10.252;2023-12-07T01:10:37;304.97;;;59.17;;
3185;SDS011;1604;53.700;10.252;2023-12-07T01:13:39;369.27;;;57.73;;
3185;SDS011;1604;53.700;10.252;2023-12-07T01:16:43;337.60;;;53.93;;
3185;SDS011;1604;53.700;10.252;2023-12-07T01:19:46;299.43;;;52.00;;
3185;SDS011;1604;53.700;10.252;2023-12-07T01:22:48;314.57;;;49.80;;
3185;SDS011;1604;53.700;10.252;2023-12-07T01:25:50;282.07;;;48.80;;
3185;SDS011;1604;53.700;10.252;2023-12-07T01:28:52;385.70;;;54.47;;
3185;SDS011;1604;53.700;10.252;2023-12-07T01:31:56;402.83;;;57.47;;
3185;SDS011;1604;53.700;10.252;2023-12-07T01:34:59;403.23;;;62.87;;
3185;SDS011;1604;53.700;10.252;2023-12-07T01:38:01;420.80;;;63.97;;
3185;SDS011;1604;53.700;10.252;2023-12-07T01:41:03;456.53;;;64.07;;
3185;SDS011;1604;53.700;10.252;2023-12-07T01:44:05;344.40;;;60.50;;
3185;SDS011;1604;53.700;10.252;2023-12-07T01:47:10;492.77;;;66.30;;
3185;SDS011;1604;53.700;10.252;2023-12-07T01:50:12;455.90;;;62.23;;
3185;SDS011;1604;53.700;10.252;2023-12-07T01:53:16;417.73;;;64.77;;
3185;SDS011;1604;53.700;10.252;2023-12-07T01:56:18;438.43;;;55.37;;
3185;SDS011;1604;53.700;10.252;2023-12-07T01:59:22;412.30;;;59.27;;
3185;SDS011;1604;53.700;10.252;2023-12-07T02:02:26;381.40;;;57.00;;
3185;SDS011;1604;53.700;10.252;2023-12-07T02:05:29;401.07;;;63.47;;
3185;SDS011;1604;53.700;10.252;2023-12-07T02:08:33;342.80;;;48.77;;
3185;SDS011;1604;53.700;10.252;2023-12-07T02:11:35;427.30;;;67.20;;
3185;SDS011;1604;53.700;10.252;2023-12-07T02:14:37;490.87;;;74.13;;
3185;SDS011;1604;53.700;10.252;2023-12-07T02:17:43;567.80;;;79.70;;
3185;SDS011;1604;53.700;10.252;2023-12-07T02:20:54;419.83;;;64.07;;
3185;SDS011;1604;53.700;10.252;2023-12-07T02:24:03;379.40;;;58.83;;
3185;SDS011;1604;53.700;10.252;2023-12-07T02:27:08;428.03;;;64.30;;
3185;SDS011;1604;53.700;10.252;2023-12-07T02:30:10;319.87;;;58.90;;
3185;SDS011;1604;53.700;10.252;2023-12-07T02:33:13;395.70;;;61.83;;
3185;SDS011;1604;53.700;10.252;2023-12-07T02:36:16;328.30;;;57.73;;
3185;SDS011;1604;53.700;10.252;2023-12-07T02:39:22;441.07;;;67.47;;
3185;SDS011;1604;53.700;10.252;2023-12-07T02:42:27;350.23;;;59.03;;
3185;SDS011;1604;53.700;10.252;2023-12-07T02:45:30;321.80;;;53.73;;
3185;SDS011;1604;53.700;10.252;2023-12-07T02:48:33;303.83;;;60.80;;
3185;SDS011;1604;53.700;10.252;2023-12-07T02:51:35;337.50;;;63.83;;
3185;SDS011;1604;53.700;10.252;2023-12-07T02:54:37;329.13;;;59.43;;
3185;SDS011;1604;53.700;10.252;2023-12-07T02:57:40;333.00;;;61.07;;
3185;SDS011;1604;53.700;10.252;2023-12-07T03:00:42;340.77;;;60.93;;
3185;SDS011;1604;53.700;10.252;2023-12-07T03:03:44;323.07;;;61.17;;
3185;SDS011;1604;53.700;10.252;2023-12-07T03:06:47;322.70;;;61.43;;
3185;SDS011;1604;53.700;10.252;2023-12-07T03:09:49;340.00;;;54.13;;
3185;SDS011;1604;53.700;10.252;2023-12-07T03:12:52;229.83;;;53.90;;
3185;SDS011;1604;53.700;10.252;2023-12-07T03:15:54;302.87;;;59.53;;
3185;SDS011;1604;53.700;10.252;2023-12-07T03:18:56;237.73;;;59.83;;
3185;SDS011;1604;53.700;10.252;2023-12-07T03:21:58;227.27;;;58.30;;
3185;SDS011;1604;53.700;10.252;2023-12-07T03:25:00;246.97;;;62.97;;
3185;SDS011;1604;53.700;10.252;2023-12-07T03:28:04;265.30;;;59.17;;
3185;SDS011;1604;53.700;10.252;2023-12-07T03:31:06;253.33;;;61.07;;
3185;SDS011;1604;53.700;10.252;2023-12-07T03:34:08;206.70;;;56.53;;
3185;SDS011;1604;53.700;10.252;2023-12-07T03:37:11;214.70;;;57.53;;
3185;SDS011;1604;53.700;10.252;2023-12-07T03:40:13;201.13;;;58.60;;
3185;SDS011;1604;53.700;10.252;2023-12-07T03:43:19;226.33;;;56.23;;
3185;SDS011;1604;53.700;10.252;2023-12-07T03:46:21;181.87;;;55.93;;
3185;SDS011;1604;53.700;10.252;2023-12-07T03:49:23;202.37;;;52.07;;
3185;SDS011;1604;53.700;10.252;2023-12-07T03:52:25;223.50;;;54.80;;
3185;SDS011;1604;53.700;10.252;2023-12-07T03:55:27;221.37;;;48.80;;
3185;SDS011;1604;53.700;10.252;2023-12-07T03:58:31;220.60;;;53.53;;
3185;SDS011;1604;53.700;10.252;2023-12-07T04:01:33;275.50;;;54.50;;
3185;SDS011;1604;53.700;10.252;2023-12-07T04:04:35;250.83;;;50.40;;
3185;SDS011;1604;53.700;10.252;2023-12-07T04:07:38;264.67;;;55.53;;
3185;SDS011;1604;53.700;10.252;2023-12-07T04:10:40;212.33;;;49.17;;
3185;SDS011;1604;53.700;10.252;2023-12-07T04:13:44;296.30;;;58.60;;
3185;SDS011;1604;53.700;10.252;2023-12-07T04:16:46;248.17;;;48.93;;
3185;SDS011;1604;53.700;10.252;2023-12-07T04:19:48;278.83;;;54.30;;
3185;SDS011;1604;53.700;10.252;2023-12-07T04:22:50;294.33;;;58.37;;
3185;SDS011;1604;53.700;10.252;2023-12-07T04:25:53;262.53;;;63.53;;
3185;SDS011;1604;53.700;10.252;2023-12-07T04:28:56;385.57;;;67.93;;
3185;SDS011;1604;53.700;10.252;2023-12-07T04:31:58;352.17;;;61.07;;
3185;SDS011;1604;53.700;10.252;2023-12-07T04:35:00;250.07;;;54.77;;
3185;SDS011;1604;53.700;10.252;2023-12-07T04:38:02;275.50;;;58.23;;
3185;SDS011;1604;53.700;10.252;2023-12-07T04:41:04;270.07;;;55.03;;
3185;SDS011;1604;53.700;10.252;2023-12-07T04:44:07;259.23;;;53.40;;
3185;SDS011;1604;53.700;10.252;2023-12-07T04:47:10;207.23;;;51.27;;
3185;SDS011;1604;53.700;10.252;2023-12-07T04:50:12;249.33;;;53.07;;
3185;SDS011;1604;53.700;10.252;2023-12-07T04:53:14;260.30;;;50.57;;
3185;SDS011;1604;53.700;10.252;2023-12-07T04:56:16;304.50;;;54.50;;
3185;SDS011;1604;53.700;10.252;2023-12-07T04:59:19;247.80;;;48.47;;
3185;SDS011;1604;53.700;10.252;2023-12-07T05:02:21;209.00;;;54.47;;
3185;SDS011;1604;53.700;10.252;2023-12-07T05:05:23;294.47;;;55.80;;
3185;SDS011;1604;53.700;10.252;2023-12-07T05:08:25;255.37;;;52.73;;
3185;SDS011;1604;53.700;10.252;2023-12-07T05:11:27;224.53;;;51.40;;
3185;SDS011;1604;53.700;10.252;2023-12-07T05:14:31;298.23;;;54.40;;
3185;SDS011;1604;53.700;10.252;2023-12-07T05:17:35;231.93;;;49.90;;
3185;SDS011;1604;53.700;10.252;2023-12-07T05:20:37;291.80;;;49.13;;
3185;SDS011;1604;53.700;10.252;2023-12-07T05:23:39;271.63;;;53.90;;
3185;SDS011;1604;53.700;10.252;2023-12-07T05:26:41;265.87;;;53.10;;
3185;SDS011;1604;53.700;10.252;2023-12-07T05:29:44;265.30;;;54.00;;
3185;SDS011;1604;53.700;10.252;2023-12-07T05:32:46;246.73;;;48.43;;
3185;SDS011;1604;53.700;10.252;2023-12-07T05:35:48;232.17;;;54.33;;
3185;SDS011;1604;53.700;10.252;2023-12-07T05:38:50;189.10;;;44.83;;
3185;SDS011;1604;53.700;10.252;2023-12-07T05:41:52;177.90;;;49.17;;
3185;SDS011;1604;53.700;10.252;2023-12-07T05:44:56;176.10;;;48.57;;
3185;SDS011;1604;53.700;10.252;2023-12-07T05:47:58;175.50;;;44.47;;
3185;SDS011;1604;53.700;10.252;2023-12-07T05:51:01;225.83;;;49.60;;
3185;SDS011;1604;53.700;10.252;2023-12-07T05:54:03;178.33;;;46.17;;
3185;SDS011;1604;53.700;10.252;2023-12-07T05:57:05;150.43;;;44.80;;
3185;SDS011;1604;53.700;10.252;2023-12-07T06:00:09;176.57;;;45.60;;
3185;SDS011;1604;53.700;10.252;2023-12-07T06:03:12;182.00;;;46.90;;
3185;SDS011;1604;53.700;10.252;2023-12-07T06:06:15;177.47;;;47.60;;
3185;SDS011;1604;53.700;10.252;2023-12-07T06:09:17;196.00;;;49.20;;
3185;SDS011;1604;53.700;10.252;2023-12-07T06:12:19;206.30;;;52.77;;
3185;SDS011;1604;53.700;10.252;2023-12-07T06:15:23;172.27;;;47.07;;
3185;SDS011;1604;53.700;10.252;2023-12-07T06:18:25;186.57;;;48.60;;
3185;SDS011;1604;53.700;10.252;2023-12-07T06:21:27;171.23;;;47.93;;
3185;SDS011;1604;53.700;10.252;2023-12-07T06:24:30;179.50;;;49.90;;
3185;SDS011;1604;53.700;10.252;2023-12-07T06:27:32;194.97;;;49.03;;
3185;SDS011;1604;53.700;10.252;2023-12-07T06:30:35;182.40;;;50.40;;
3185;SDS011;1604;53.700;10.252;2023-12-07T06:33:40;175.40;;;50.17;;
3185;SDS011;1604;53.700;10.252;2023-12-07T06:36:41;174.20;;;50.70;;
3185;SDS011;1604;53.700;10.252;2023-12-07T06:39:44;179.00;;;49.90;;
3185;SDS011;1604;53.700;10.252;2023-12-07T06:42:46;187.23;;;51.13;;
3185;SDS011;1604;53.700;10.252;2023-12-07T06:45:49;172.60;;;50.40;;
3185;SDS011;1604;53.700;10.252;2023-12-07T06:48:51;190.67;;;48.93;;
3185;SDS011;1604;53.700;10.252;2023-12-07T06:51:53;209.00;;;49.17;;
3185;SDS011;1604;53.700;10.252;2023-12-07T06:54:55;171.17;;;50.10;;
3185;SDS011;1604;53.700;10.252;2023-12-07T06:57:57;185.00;;;51.77;;
3185;SDS011;1604;53.700;10.252;2023-12-07T07:01:01;170.33;;;50.13;;
3185;SDS011;1604;53.700;10.252;2023-12-07T07:04:03;198.30;;;53.10;;
3185;SDS011;1604;53.700;10.252;2023-12-07T07:07:05;170.00;;;50.47;;
3185;SDS011;1604;53.700;10.252;2023-12-07T07:10:07;177.90;;;51.77;;
3185;SDS011;1604;53.700;10.252;2023-12-07T07:13:12;170.60;;;50.27;;
3185;SDS011;1604;53.700;10.252;2023-12-07T07:16:18;173.33;;;49.37;;
3185;SDS011;1604;53.700;10.252;2023-12-07T07:19:20;171.13;;;48.00;;
3185;SDS011;1604;53.700;10.252;2023-12-07T07:22:22;186.33;;;49.53;;
3185;SDS011;1604;53.700;10.252;2023-12-07T07:25:24;185.90;;;50.43;;
3185;SDS011;1604;53.700;10.252;2023-12-07T07:28:26;163.53;;;46.00;;
3185;SDS011;1604;53.700;10.252;2023-12-07T07:31:29;180.40;;;48.20;;
3185;SDS011;1604;53.700;10.252;2023-12-07T07:34:31;193.07;;;49.20;;
3185;SDS011;1604;53.700;10.252;2023-12-07T07:37:33;175.27;;;47.20;;
3185;SDS011;1604;53.700;10.252;2023-12-07T07:40:35;187.80;;;49.50;;
3185;SDS011;1604;53.700;10.252;2023-12-07T07:43:37;192.93;;;51.20;;
3185;SDS011;1604;53.700;10.252;2023-12-07T07:46:41;165.07;;;48.67;;
3185;SDS011;1604;53.700;10.252;2023-12-07T07:49:43;168.33;;;50.33;;
3185;SDS011;1604;53.700;10.252;2023-12-07T07:52:45;164.57;;;48.60;;
3185;SDS011;1604;53.700;10.252;2023-12-07T07:55:47;199.30;;;52.57;;
3185;SDS011;1604;53.700;10.252;2023-12-07T07:58:49;203.87;;;50.43;;
3185;SDS011;1604;53.700;10.252;2023-12-07T08:01:52;168.97;;;50.43;;
3185;SDS011;1604;53.700;10.252;2023-12-07T08:04:54;230.50;;;51.63;;
3185;SDS011;1604;53.700;10.252;2023-12-07T08:07:56;220.00;;;54.77;;
3185;SDS011;1604;53.700;10.252;2023-12-07T08:10:58;264.33;;;51.97;;
3185;SDS011;1604;53.700;10.252;2023-12-07T08:14:01;289.27;;;50.50;;
3185;SDS011;1604;53.700;10.252;2023-12-07T08:17:04;325.93;;;55.83;;
3185;SDS011;1604;53.700;10.252;2023-12-07T08:20:07;288.80;;;57.37;;
3185;SDS011;1604;53.700;10.252;2023-12-07T08:23:10;315.60;;;53.90;;
3185;SDS011;1604;53.700;10.252;2023-12-07T08:26:12;302.57;;;53.37;;
3185;SDS011;1604;53.700;10.252;2023-12-07T08:29:14;319.10;;;49.97;;
3185;SDS011;1604;53.700;10.252;2023-12-07T08:32:18;341.23;;;55.40;;
3185;SDS011;1604;53.700;10.252;2023-12-07T08:35:20;286.80;;;53.93;;
3185;SDS011;1604;53.700;10.252;2023-12-07T08:38:22;282.10;;;49.13;;
3185;SDS011;1604;53.700;10.252;2023-12-07T08:41:23;338.93;;;54.90;;
3185;SDS011;1604;53.700;10.252;2023-12-07T08:44:25;231.80;;;52.73;;
3185;SDS011;1604;53.700;10.252;2023-12-07T08:47:29;284.50;;;53.90;;
3185;SDS011;1604;53.700;10.252;2023-12-07T08:50:31;277.30;;;53.43;;
3185;SDS011;1604;53.700;10.252;2023-12-07T08:53:33;236.43;;;52.67;;
3185;SDS011;1604;53.700;10.252;2023-12-07T08:56:35;230.93;;;51.50;;
3185;SDS011;1604;53.700;10.252;2023-12-07T08:59:37;226.83;;;47.67;;
3185;SDS011;1604;53.700;10.252;2023-12-07T09:02:41;217.40;;;49.10;;
3185;SDS011;1604;53.700;10.252;2023-12-07T09:05:43;199.73;;;54.77;;
3185;SDS011;1604;53.700;10.252;2023-12-07T09:08:44;221.67;;;52.07;;
3185;SDS011;1604;53.700;10.252;2023-12-07T09:11:46;230.00;;;55.87;;
3185;SDS011;1604;53.700;10.252;2023-12-07T09:14:48;189.53;;;49.10;;
3185;SDS011;1604;53.700;10.252;2023-12-07T09:17:52;183.43;;;49.80;;
3185;SDS011;1604;53.700;10.252;2023-12-07T09:20:54;170.13;;;46.73;;
3185;SDS011;1604;53.700;10.252;2023-12-07T09:23:56;181.13;;;46.10;;
3185;SDS011;1604;53.700;10.252;2023-12-07T09:26:58;174.00;;;47.60;;
3185;SDS011;1604;53.700;10.252;2023-12-07T09:30:00;157.77;;;45.53;;
3185;SDS011;1604;53.700;10.252;2023-12-07T09:33:04;170.10;;;47.30;;
3185;SDS011;1604;53.700;10.252;2023-12-07T09:36:06;145.10;;;45.90;;
3185;SDS011;1604;53.700;10.252;2023-12-07T09:39:08;170.10;;;48.33;;
3185;SDS011;1604;53.700;10.252;2023-12-07T09:42:11;156.70;;;48.50;;
3185;SDS011;1604;53.700;10.252;2023-12-07T09:45:13;137.07;;;43.83;;
3185;SDS011;1604;53.700;10.252;2023-12-07T09:48:18;143.67;;;48.00;;
3185;SDS011;1604;53.700;10.252;2023-12-07T09:51:21;157.10;;;47.10;;
3185;SDS011;1604;53.700;10.252;2023-12-07T09:54:24;136.73;;;44.60;;
3185;SDS011;1604;53.700;10.252;2023-12-07T09:57:27;140.03;;;43.37;;
3185;SDS011;1604;53.700;10.252;2023-12-07T10:00:29;149.97;;;48.30;;
3185;SDS011;1604;53.700;10.252;2023-12-07T10:03:34;153.83;;;47.17;;
3185;SDS011;1604;53.700;10.252;2023-12-07T10:06:42;135.53;;;42.63;;
3185;SDS011;1604;53.700;10.252;2023-12-07T10:09:44;122.53;;;43.13;;
3185;SDS011;1604;53.700;10.252;2023-12-07T10:12:47;166.67;;;49.13;;
3185;SDS011;1604;53.700;10.252;2023-12-07T10:15:55;137.33;;;43.93;;
3185;SDS011;1604;53.700;10.252;2023-12-07T10:19:14;149.03;;;48.80;;
3185;SDS011;1604;53.700;10.252;2023-12-07T10:22:19;131.50;;;42.40;;
3185;SDS011;1604;53.700;10.252;2023-12-07T10:25:21;143.97;;;41.97;;
3185;SDS011;1604;53.700;10.252;2023-12-07T10:28:23;132.80;;;46.10;;
3185;SDS011;1604;53.700;10.252;2023-12-07T10:31:25;162.17;;;48.40;;
3185;SDS011;1604;53.700;10.252;2023-12-07T10:34:29;135.70;;;45.00;;
3185;SDS011;1604;53.700;10.252;2023-12-07T10:37:31;130.27;;;46.23;;
3185;SDS011;1604;53.700;10.252;2023-12-07T10:40:34;155.30;;;47.77;;
3185;SDS011;1604;53.700;10.252;2023-12-07T10:43:37;150.03;;;47.10;;
3185;SDS011;1604;53.700;10.252;2023-12-07T10:46:43;142.20;;;47.47;;
3185;SDS011;1604;53.700;10.252;2023-12-07T10:49:48;142.53;;;48.70;;
3185;SDS011;1604;53.700;10.252;2023-12-07T10:52:55;137.17;;;46.80;;
3185;SDS011;1604;53.700;10.252;2023-12-07T10:56:00;166.47;;;49.90;;
3185;SDS011;1604;53.700;10.252;2023-12-07T10:59:05;147.57;;;49.30;;
3185;SDS011;1604;53.700;10.252;2023-12-07T11:02:10;143.87;;;47.33;;
3185;SDS011;1604;53.700;10.252;2023-12-07T11:05:16;158.17;;;50.50;;
3185;SDS011;1604;53.700;10.252;2023-12-07T11:08:21;136.10;;;50.63;;
3185;SDS011;1604;53.700;10.252;2023-12-07T11:11:28;141.80;;;47.97;;
3185;SDS011;1604;53.700;10.252;2023-12-07T11:14:35;131.20;;;45.60;;
3185;SDS011;1604;53.700;10.252;2023-12-07T11:17:52;146.47;;;48.80;;
3185;SDS011;1604;53.700;10.252;2023-12-07T11:20:57;140.70;;;49.80;;
3185;SDS011;1604;53.700;10.252;2023-12-07T11:24:01;144.37;;;51.00;;
3185;SDS011;1604;53.700;10.252;2023-12-07T11:27:04;147.07;;;48.50;;
3185;SDS011;1604;53.700;10.252;2023-12-07T11:30:07;155.00;;;52.67;;
3185;SDS011;1604;53.700;10.252;2023-12-07T11:33:09;147.43;;;51.83;;
3185;SDS011;1604;53.700;10.252;2023-12-07T11:36:14;152.37;;;49.37;;
3185;SDS011;1604;53.700;10.252;2023-12-07T11:39:16;140.90;;;48.77;;
3185;SDS011;1604;53.700;10.252;2023-12-07T11:42:20;145.63;;;48.30;;
3185;SDS011;1604;53.700;10.252;2023-12-07T11:45:38;136.03;;;47.50;;
3185;SDS011;1604;53.700;10.252;2023-12-07T11:48:47;151.30;;;47.50;;
3185;SDS011;1604;53.700;10.252;2023-12-07T11:51:51;161.40;;;53.20;;
3185;SDS011;1604;53.700;10.252;2023-12-07T11:54:53;150.33;;;50.43;;
3185;SDS011;1604;53.700;10.252;2023-12-07T11:57:55;146.50;;;49.70;;
3185;SDS011;1604;53.700;10.252;2023-12-07T12:00:57;130.30;;;49.60;;
3185;SDS011;1604;53.700;10.252;2023-12-07T12:03:59;142.23;;;51.17;;
3185;SDS011;1604;53.700;10.252;2023-12-07T12:07:03;135.53;;;48.67;;
3185;SDS011;1604;53.700;10.252;2023-12-07T12:10:06;157.70;;;50.87;;
3185;SDS011;1604;53.700;10.252;2023-12-07T12:13:09;148.77;;;50.07;;
3185;SDS011;1604;53.700;10.252;2023-12-07T12:16:11;164.43;;;52.40;;
3185;SDS011;1604;53.700;10.252;2023-12-07T12:19:13;151.37;;;53.57;;
3185;SDS011;1604;53.700;10.252;2023-12-07T12:22:16;149.87;;;50.40;;
3185;SDS011;1604;53.700;10.252;2023-12-07T12:25:19;150.83;;;56.67;;
3185;SDS011;1604;53.700;10.252;2023-12-07T12:28:22;171.87;;;55.47;;
3185;SDS011;1604;53.700;10.252;2023-12-07T12:31:25;161.27;;;55.00;;
3185;SDS011;1604;53.700;10.252;2023-12-07T12:34:27;163.40;;;57.07;;
3185;SDS011;1604;53.700;10.252;2023-12-07T12:37:31;149.50;;;54.83;;
3185;SDS011;1604;53.700;10.252;2023-12-07T12:40:33;178.00;;;58.40;;
3185;SDS011;1604;53.700;10.252;2023-12-07T12:43:35;147.60;;;53.80;;
3185;SDS011;1604;53.700;10.252;2023-12-07T12:46:37;159.33;;;54.10;;
3185;SDS011;1604;53.700;10.252;2023-12-07T12:49:40;162.27;;;55.33;;
3185;SDS011;1604;53.700;10.252;2023-12-07T12:52:45;162.83;;;56.07;;
3185;SDS011;1604;53.700;10.252;2023-12-07T12:55:47;172.07;;;59.63;;
3185;SDS011;1604;53.700;10.252;2023-12-07T12:58:50;156.70;;;60.73;;
3185;SDS011;1604;53.700;10.252;2023-12-07T13:01:53;166.80;;;54.93;;
3185;SDS011;1604;53.700;10.252;2023-12-07T13:04:55;161.30;;;55.27;;
3185;SDS011;1604;53.700;10.252;2023-12-07T13:07:59;180.37;;;60.80;;
3185;SDS011;1604;53.700;10.252;2023-12-07T13:11:01;166.73;;;55.70;;
3185;SDS011;1604;53.700;10.252;2023-12-07T13:14:04;174.70;;;54.03;;
3185;SDS011;1604;53.700;10.252;2023-12-07T13:17:07;177.17;;;57.57;;
3185;SDS011;1604;53.700;10.252;2023-12-07T13:20:10;183.00;;;58.67;;
3185;SDS011;1604;53.700;10.252;2023-12-07T13:23:15;168.27;;;57.50;;
3185;SDS011;1604;53.700;10.252;2023-12-07T13:26:18;191.30;;;55.97;;
3185;SDS011;1604;53.700;10.252;2023-12-07T13:29:21;178.33;;;56.80;;
3185;SDS011;1604;53.700;10.252;2023-12-07T13:32:23;164.33;;;57.30;;
3185;SDS011;1604;53.700;10.252;2023-12-07T13:35:25;165.00;;;55.57;;
3185;SDS011;1604;53.700;10.252;2023-12-07T13:38:29;168.63;;;54.70;;
3185;SDS011;1604;53.700;10.252;2023-12-07T13:41:31;159.50;;;51.27;;
3185;SDS011;1604;53.700;10.252;2023-12-07T13:44:33;155.23;;;54.10;;
3185;SDS011;1604;53.700;10.252;2023-12-07T13:47:35;167.43;;;55.53;;
3185;SDS011;1604;53.700;10.252;2023-12-07T13:50:39;170.40;;;56.20;;
3185;SDS011;1604;53.700;10.252;2023-12-07T13:53:42;164.43;;;57.00;;
3185;SDS011;1604;53.700;10.252;2023-12-07T13:56:44;145.37;;;51.83;;
3185;SDS011;1604;53.700;10.252;2023-12-07T13:59:47;138.33;;;48.73;;
3185;SDS011;1604;53.700;10.252;2023-12-07T14:02:50;150.40;;;51.73;;
3185;SDS011;1604;53.700;10.252;2023-12-07T14:05:52;144.73;;;49.67;;
3185;SDS011;1604;53.700;10.252;2023-12-07T14:08:56;167.70;;;56.20;;
3185;SDS011;1604;53.700;10.252;2023-12-07T14:11:58;166.33;;;53.93;;
3185;SDS011;1604;53.700;10.252;2023-12-07T14:15:00;172.23;;;52.10;;
3185;SDS011;1604;53.700;10.252;2023-12-07T14:18:03;169.17;;;55.90;;
3185;SDS011;1604;53.700;10.252;2023-12-07T14:21:05;154.40;;;53.97;;
3185;SDS011;1604;53.700;10.252;2023-12-07T14:24:09;189.50;;;64.07;;
3185;SDS011;1604;53.700;10.252;2023-12-07T14:27:11;173.40;;;58.60;;
3185;SDS011;1604;53.700;10.252;2023-12-07T14:30:15;185.90;;;57.77;;
3185;SDS011;1604;53.700;10.252;2023-12-07T14:33:18;192.47;;;62.00;;
3185;SDS011;1604;53.700;10.252;2023-12-07T14:36:20;190.80;;;57.93;;
3185;SDS011;1604;53.700;10.252;2023-12-07T14:39:24;170.10;;;57.73;;
3185;SDS011;1604;53.700;10.252;2023-12-07T14:42:26;169.67;;;56.13;;
3185;SDS011;1604;53.700;10.252;2023-12-07T14:45:28;189.03;;;53.63;;
3185;SDS011;1604;53.700;10.252;2023-12-07T14:48:30;154.80;;;48.93;;
3185;SDS011;1604;53.700;10.252;2023-12-07T14:51:32;147.80;;;47.07;;
3185;SDS011;1604;53.700;10.252;2023-12-07T14:54:37;161.10;;;49.77;;
3185;SDS011;1604;53.700;10.252;2023-12-07T14:57:39;163.03;;;52.17;;
3185;SDS011;1604;53.700;10.252;2023-12-07T15:00:41;145.93;;;47.80;;
3185;SDS011;1604;53.700;10.252;2023-12-07T15:03:43;165.37;;;53.30;;
3185;SDS011;1604;53.700;10.252;2023-12-07T15:06:45;181.50;;;59.67;;
3185;SDS011;1604;53.700;10.252;2023-12-07T15:09:48;185.77;;;57.97;;
3185;SDS011;1604;53.700;10.252;2023-12-07T15:12:52;172.97;;;51.33;;
3185;SDS011;1604;53.700;10.252;2023-12-07T15:15:53;198.73;;;54.37;;
3185;SDS011;1604;53.700;10.252;2023-12-07T15:18:55;156.80;;;51.53;;
3185;SDS011;1604;53.700;10.252;2023-12-07T15:21:57;161.40;;;50.13;;
3185;SDS011;1604;53.700;10.252;2023-12-07T15:25:01;166.43;;;46.03;;
3185;SDS011;1604;53.700;10.252;2023-12-07T15:28:04;148.03;;;42.70;;
3185;SDS011;1604;53.700;10.252;2023-12-07T15:31:10;131.07;;;42.90;;
3185;SDS011;1604;53.700;10.252;2023-12-07T15:34:12;180.23;;;46.07;;
3185;SDS011;1604;53.700;10.252;2023-12-07T15:37:14;191.40;;;46.13;;
3185;SDS011;1604;53.700;10.252;2023-12-07T15:40:19;194.30;;;48.07;;
3185;SDS011;1604;53.700;10.252;2023-12-07T15:43:21;242.07;;;44.60;;
3185;SDS011;1604;53.700;10.252;2023-12-07T15:46:23;228.07;;;49.80;;
3185;SDS011;1604;53.700;10.252;2023-12-07T15:49:25;331.57;;;56.70;;
3185;SDS011;1604;53.700;10.252;2023-12-07T15:52:27;322.97;;;53.70;;
3185;SDS011;1604;53.700;10.252;2023-12-07T15:55:31;186.13;;;52.27;;
3185;SDS011;1604;53.700;10.252;2023-12-07T15:58:33;189.17;;;47.50;;
3185;SDS011;1604;53.700;10.252;2023-12-07T16:01:34;178.43;;;45.60;;
3185;SDS011;1604;53.700;10.252;2023-12-07T16:04:37;171.67;;;46.00;;
3185;SDS011;1604;53.700;10.252;2023-12-07T16:07:39;127.70;;;39.90;;
3185;SDS011;1604;53.700;10.252;2023-12-07T16:10:43;127.03;;;41.33;;
3185;SDS011;1604;53.700;10.252;2023-12-07T16:13:45;116.33;;;39.43;;
3185;SDS011;1604;53.700;10.252;2023-12-07T16:16:47;99.10;;;35.57;;
3185;SDS011;1604;53.700;10.252;2023-12-07T16:19:49;101.07;;;33.50;;
3185;SDS011;1604;53.700;10.252;2023-12-07T16:22:51;101.33;;;37.83;;
3185;SDS011;1604;53.700;10.252;2023-12-07T16:25:54;113.97;;;38.20;;
3185;SDS011;1604;53.700;10.252;2023-12-07T16:28:57;111.90;;;34.87;;
3185;SDS011;1604;53.700;10.252;2023-12-07T16:31:59;105.80;;;36.90;;
3185;SDS011;1604;53.700;10.252;2023-12-07T16:35:01;91.23;;;32.43;;
3185;SDS011;1604;53.700;10.252;2023-12-07T16:38:04;115.57;;;36.80;;
3185;SDS011;1604;53.700;10.252;2023-12-07T16:41:07;95.77;;;36.10;;
3185;SDS011;1604;53.700;10.252;2023-12-07T16:44:09;100.43;;;31.37;;
3185;SDS011;1604;53.700;10.252;2023-12-07T16:47:11;116.37;;;35.00;;
3185;SDS011;1604;53.700;10.252;2023-12-07T16:50:14;137.87;;;39.40;;
3185;SDS011;1604;53.700;10.252;2023-12-07T16:53:16;131.47;;;38.30;;
3185;SDS011;1604;53.700;10.252;2023-12-07T16:56:19;132.50;;;38.37;;
3185;SDS011;1604;53.700;10.252;2023-12-07T16:59:21;102.93;;;32.80;;
3185;SDS011;1604;53.700;10.252;2023-12-07T17:02:23;117.27;;;37.03;;
3185;SDS011;1604;53.700;10.252;2023-12-07T17:05:26;118.93;;;38.53;;
3185;SDS011;1604;53.700;10.252;2023-12-07T17:08:28;138.20;;;38.33;;
3185;SDS011;1604;53.700;10.252;2023-12-07T17:11:32;131.27;;;38.90;;
3185;SDS011;1604;53.700;10.252;2023-12-07T17:14:34;166.67;;;42.77;;
3185;SDS011;1604;53.700;10.252;2023-12-07T17:17:38;191.30;;;46.20;;
3185;SDS011;1604;53.700;10.252;2023-12-07T17:20:40;163.63;;;44.27;;
3185;SDS011;1604;53.700;10.252;2023-12-07T17:23:42;204.13;;;45.27;;
3185;SDS011;1604;53.700;10.252;2023-12-07T17:26:45;229.93;;;48.90;;
3185;SDS011;1604;53.700;10.252;2023-12-07T17:29:47;180.60;;;46.77;;
3185;SDS011;1604;53.700;10.252;2023-12-07T17:32:49;196.33;;;46.63;;
3185;SDS011;1604;53.700;10.252;2023-12-07T17:35:51;214.03;;;52.23;;
3185;SDS011;1604;53.700;10.252;2023-12-07T17:38:53;211.97;;;52.60;;
3185;SDS011;1604;53.700;10.252;2023-12-07T17:41:57;208.80;;;47.83;;
3185;SDS011;1604;53.700;10.252;2023-12-07T17:44:59;176.07;;;43.37;;
3185;SDS011;1604;53.700;10.252;2023-12-07T17:48:03;169.50;;;47.30;;